Terminal Aerodrome Forecast
Issued by NWS

Current Version | Previous Version | Text Only | Print | Product List | Glossary On
Versions: 1 2 3 4 5 6 7 8 9 10 11 12 13 14 15 16
410
FTUS45 KSLC 221733
TAFLGU
TAF
KLGU 221733Z 2218/2318 19008KT P6SM VCSH SCT060 BKN080
     FM230000 VRB04KT P6SM -SHRA SCT040 BKN060
     FM230900 VRB04KT 6SM -RA BKN030 OVC050=

USA.gov is the U.S. government's official web portal to all federal, state and local government web resources and services.